Pittsford, New York
Current Conditions -  °F | °C
As of 5:54 AM on Friday 19 Dec 2014 (Local Time) from KROC Reporting Station
Light Snow Light Snow  
Wind Chill: 13°   Ceiling: 1300
Heat Index: 25°   Visibility: 10mi
Dew Point: 20°   Wind: 15mph
Humidity: 81%   Direction: 300°WNW
Pressure: 30.1"   Gusts: 21mph
Location:  43.09°N, 77.51°W
Report Text: KROC 191054Z 30013G18KT 10SM -SN OVC013 M04/M07 A3010 RMK AO2 SNB51 SLP204 PCPN VRY LGT P0000 T10391067
Loading
Personal Weather Stations






























Interactive Weather Map New forecast layout! Learn more

10-Day Weather Forecast

Advertisements
Track Severe Weather on mobile